Mullan, ID

1:54 AM PDT on August 29, 2016 (GMT -0700)
Mullan Pass | | Change Station

Elev 6073 ft 47.45 °N, 115.67 °W | Updated 1 hour ago

Clear
Clear
57 °F
Feels Like 57 °F
N
5
Wind Variable Wind from South

Today
High -- | Low -- °F
--% Chance of Precip.
Yesterday
High -- | Low -- °F
Precip. -- in
Pressure 30.03 in
Visibility 10.0 miles
Clouds Clear
Dew Point 32 °F
Humidity 39%
Rainfall 0.00 in
Snow Depth Not available.
5:58 AM 7:27 PM
Waning Crescent, 10% visible
METAR KMLP 290753Z AUTO 17004KT 10SM CLR 14/00 A3028 RMK AO2 SLP169 T01390000 401780078
Pressure 30.03 in
Visibility 10.0 miles
Clouds Clear
Dew Point 32 °F
Humidity 39%
Rainfall 0.00 in
Snow Depth Not available.
5:58 AM 7:27 PM
Waning Crescent, 10% visible
METAR KMLP 290753Z AUTO 17004KT 10SM CLR 14/00 A3028 RMK AO2 SLP169 T01390000 401780078

10-Day Weather Forecast

Almanac

Astronomy

Aug. 29, 2016 Rise Set
Actual Time
Civil Twilight
Nautical Twilight
Astronomical Twilight
Moon
Length of Visible Light
Length of Day
Tomorrow will be .
, % of the Moon is Illuminated

Today's Extremes

State Highs State Lows

Community

WunderPhotos

Upload Photos

1,935,800 photos uploaded!

WunderBlog® & News

Nearby

Air Quality

  Air Quality AQ Index Pollutant
Not available.

Snow Depth

Station Depth Elevation

Earthquake Activity

City Distance Mag. Time & Date
Minimum magnitude displayed is 2.5.

Coastal Water Temperatures

Place Temperature

Stations

Nearby Weather Stations

Station Location Temp. Windchill Dew Point Humidity Wind Precip. Elev Updated Type
                   

Watches & Warnings

There are currently no watches in effect.